Time;durP1;ratioP1;P1;durP2;ratioP2;P2;SDS_P1;SDS_P2;PMS_P1;PMS_P2;Temp;Humidity;BMP_temperature;BMP_pressure;BME280_temperature;BME280_humidity;BME280_pressure;Samples;Min_cycle;Max_cycle;Signal;HPM_P1;HPM_P2
2023/06/17 00:01:51;;;;;;;8.02;5.20;;;;;;;20.25;nan;32090.91;4992758;28;20168;-57
2023/06/17 00:04:17;;;;;;;9.82;5.53;;;;;;;20.17;nan;27480.78;4992270;28;20287;-58
2023/06/17 00:06:42;;;;;;;8.27;5.50;;;;;;;20.14;nan;23865.28;4991174;28;20192;-59
2023/06/17 00:09:08;;;;;;;7.88;5.32;;;;;;;20.12;nan;25834.59;4992497;28;20173;-58
2023/06/17 00:11:33;;;;;;;12.02;6.30;;;;;;;20.18;nan;30112.22;4991486;28;20200;-59
2023/06/17 00:14:00;;;;;;;10.13;5.95;;;;;;;20.19;nan;28139.16;4991842;28;20612;-57
2023/06/17 00:16:26;;;;;;;9.10;6.10;;;;;;;20.11;nan;28463.31;4992073;28;20263;-59
2023/06/17 00:18:51;;;;;;;10.43;6.57;;;;;;;20.16;nan;28466.22;4991694;28;20256;-58
2023/06/17 00:21:17;;;;;;;9.18;6.13;;;;;;;20.12;nan;25177.88;4991931;28;20184;-58
2023/06/17 00:23:42;;;;;;;12.30;5.93;;;;;;;19.86;nan;18276.34;4992146;28;20228;-57
2023/06/17 00:26:08;;;;;;;9.43;5.85;;;;;;;19.96;nan;19919.44;4992255;28;20264;-59
2023/06/17 00:28:33;;;;;;;10.68;6.13;;;;;;;19.90;nan;19261.16;4987646;28;20189;-59
2023/06/17 00:30:58;;;;;;;9.82;6.10;;;;;;;19.91;nan;17950.56;4972439;28;20557;-57
2023/06/17 00:33:24;;;;;;;8.27;5.57;;;;;;;20.20;nan;17962.72;4972462;28;20209;-59
2023/06/17 00:35:49;;;;;;;8.65;6.20;;;;;;;19.96;nan;18280.31;4972294;28;20185;-58
2023/06/17 00:38:15;;;;;;;9.23;6.20;;;;;;;20.13;nan;21567.16;4972415;28;20177;-58
2023/06/17 00:40:40;;;;;;;8.98;5.82;;;;;;;20.29;nan;23216.13;4971224;28;20200;-58
2023/06/17 00:43:05;;;;;;;11.25;6.53;;;;;;;20.25;nan;27814.13;4972772;28;20298;-59
2023/06/17 00:45:38;;;;;;;9.05;5.90;;;;;;;19.94;nan;25825.13;4972872;28;20181;-58
2023/06/17 00:48:07;;;;;;;9.45;6.03;;;;;;;20.22;nan;26168.91;4972323;28;20532;-58
2023/06/17 00:50:36;;;;;;;10.68;5.55;;;;;;;20.23;nan;24854.94;4972726;28;20562;-58
2023/06/17 00:53:02;;;;;;;9.00;6.15;;;;;;;20.21;nan;24854.16;4973213;28;20253;-58
2023/06/17 00:55:27;;;;;;;8.55;5.43;;;;;;;20.17;nan;27809.53;4972826;28;20199;-58
2023/06/17 00:57:53;;;;;;;9.50;6.00;;;;;;;20.16;nan;25179.75;4972769;28;20257;-58
2023/06/17 01:00:19;;;;;;;10.95;6.10;;;;;;;20.24;nan;25512.81;4972557;28;20297;-58
2023/06/17 01:02:46;;;;;;;8.68;5.60;;;;;;;20.20;nan;25839.22;4972562;28;20314;-58
2023/06/17 01:05:14;;;;;;;10.48;5.82;;;;;;;20.16;nan;29124.19;4972458;28;20220;-57
2023/06/17 01:08:02;;;;;;;9.45;5.60;;;;;;;20.19;nan;29783.84;4972895;28;20600;-58
2023/06/17 01:10:37;;;;;;;8.27;5.30;;;;;;;20.13;nan;25835.16;4973224;28;20186;-58
2023/06/17 01:13:04;;;;;;;8.02;5.13;;;;;;;20.16;nan;27151.50;4972174;28;20177;-57
2023/06/17 01:15:34;;;;;;;8.35;5.43;;;;;;;20.08;nan;27147.00;4972748;28;20702;-59
2023/06/17 01:18:01;;;;;;;8.95;5.28;;;;;;;20.16;nan;31097.75;4972221;28;20169;-58
2023/06/17 01:20:28;;;;;;;10.45;6.00;;;;;;;19.96;nan;31743.50;4978242;28;20225;-58
2023/06/17 01:22:55;;;;;;;7.35;4.93;;;;;;;20.02;nan;32405.19;5001496;28;20184;-58
2023/06/17 01:25:29;;;;;;;9.25;5.20;;;;;;;20.19;nan;32087.03;4995007;28;20183;-59
2023/06/17 01:27:55;;;;;;;7.25;4.72;;;;;;;20.15;nan;32743.19;4995537;28;20177;-58
2023/06/17 01:30:20;;;;;;;10.00;5.65;;;;;;;19.97;nan;33389.72;4995180;28;20275;-59
2023/06/17 01:32:46;;;;;;;9.45;5.35;;;;;;;20.20;nan;32746.47;4995210;28;20723;-58
2023/06/17 01:35:16;;;;;;;9.05;5.72;;;;;;;20.17;nan;36368.09;4995208;28;20714;-58
2023/06/17 01:37:47;;;;;;;8.48;5.68;;;;;;;20.06;nan;42528.88;4995321;28;20643;-59
2023/06/17 01:40:14;;;;;;;8.55;5.10;;;;;;;20.19;nan;41523.59;4993881;28;20176;-59
2023/06/17 01:42:50;;;;;;;9.57;5.50;;;;;;;20.11;nan;43526.59;4995805;28;20220;-58
2023/06/17 01:45:15;;;;;;;7.47;4.85;;;;;;;20.04;nan;43306.63;4995054;28;20295;-59
2023/06/17 01:47:42;;;;;;;8.13;4.95;;;;;;;19.81;nan;44469.25;4995122;28;20204;-57
2023/06/17 01:50:08;;;;;;;9.48;5.82;;;;;;;20.10;nan;48979.03;4994866;28;20192;-58
2023/06/17 01:52:34;;;;;;;7.13;5.05;;;;;;;20.07;nan;51321.44;4994812;28;20640;-59
2023/06/17 01:55:00;;;;;;;7.35;4.60;;;;;;;20.04;nan;52228.91;4995066;28;20180;-58
2023/06/17 01:57:26;;;;;;;9.18;5.22;;;;;;;19.81;nan;51410.16;4995107;28;20534;-59
2023/06/17 01:59:53;;;;;;;8.77;5.97;;;;;;;19.85;nan;50403.38;4994674;28;20187;-58
2023/06/17 02:02:19;;;;;;;9.90;6.00;;;;;;;20.09;nan;49254.66;4994778;28;20611;-58
2023/06/17 02:04:47;;;;;;;12.70;6.25;;;;;;;20.04;nan;49270.69;4994480;28;20196;-59
2023/06/17 02:07:18;;;;;;;11.73;6.63;;;;;;;20.20;nan;50800.69;4994637;28;20633;-58
2023/06/17 02:09:45;;;;;;;11.50;6.90;;;;;;;20.11;nan;50138.44;4994892;28;20648;-58
2023/06/17 02:12:11;;;;;;;12.00;6.85;;;;;;;19.88;nan;50432.06;4994854;28;20181;-58
2023/06/17 02:14:37;;;;;;;9.63;6.22;;;;;;;19.96;nan;51532.72;4994770;28;20242;-58
2023/06/17 02:17:02;;;;;;;10.57;5.70;;;;;;;20.13;nan;51027.22;4994667;28;20176;-58
2023/06/17 02:19:37;;;;;;;9.02;5.80;;;;;;;20.19;nan;50908.34;4994441;28;20161;-59
2023/06/17 02:22:04;;;;;;;10.63;6.97;;;;;;;20.10;nan;50098.72;4994708;28;20176;-58
2023/06/17 02:24:30;;;;;;;8.27;5.65;;;;;;;20.06;nan;49702.03;4994781;28;20208;-58
2023/06/17 02:26:56;;;;;;;7.90;5.43;;;;;;;19.87;nan;49299.28;4994089;28;20173;-58
2023/06/17 02:29:22;;;;;;;7.47;5.28;;;;;;;19.88;nan;48879.09;4994566;28;20226;-58
2023/06/17 02:31:47;;;;;;;9.30;5.97;;;;;;;20.07;nan;47987.09;4993467;28;20176;-58
2023/06/17 02:34:12;;;;;;;8.52;5.50;;;;;;;20.06;nan;47285.72;5001773;28;20200;-59
2023/06/17 02:36:38;;;;;;;11.38;5.85;;;;;;;20.04;nan;47715.28;4994095;28;20184;-59
2023/06/17 02:39:04;;;;;;;10.55;4.88;;;;;;;20.02;nan;46409.75;4994380;28;20200;-59
2023/06/17 02:41:29;;;;;;;8.43;5.55;;;;;;;19.87;nan;43152.84;4992390;28;20692;-59
2023/06/17 02:43:54;;;;;;;8.18;5.22;;;;;;;19.94;nan;40320.13;4994049;28;20707;-58
2023/06/17 02:46:20;;;;;;;8.50;4.72;;;;;;;19.86;nan;37607.25;4993767;28;20184;-58
2023/06/17 02:48:45;;;;;;;8.10;5.20;;;;;;;19.91;nan;38702.47;4993425;28;20173;-59
2023/06/17 02:51:11;;;;;;;7.43;5.15;;;;;;;19.77;nan;34363.81;4993104;28;20259;-58
2023/06/17 02:53:37;;;;;;;7.70;4.85;;;;;;;19.68;nan;29095.94;4993244;28;20184;-59
2023/06/17 02:56:02;;;;;;;8.23;5.00;;;;;;;19.39;nan;28093.41;4993188;28;20196;-58
2023/06/17 02:58:28;;;;;;;8.85;5.70;;;;;;;19.45;nan;27111.56;4994447;28;20181;-58
2023/06/17 03:00:57;;;;;;;8.80;5.60;;;;;;;19.37;nan;24154.56;4993563;28;20568;-59
2023/06/17 03:03:33;;;;;;;8.05;5.45;;;;;;;19.46;nan;22846.88;4992726;28;20224;-58
2023/06/17 03:06:01;;;;;;;8.18;5.72;;;;;;;15.23;nan;23618.84;4992860;28;20183;-58
2023/06/17 03:08:28;;;;;;;11.50;6.15;;;;;;;19.58;nan;20885.91;4993615;28;20240;-58
2023/06/17 03:10:53;;;;;;;9.65;5.68;;;;;;;19.58;nan;20558.16;4992811;28;20180;-58
2023/06/17 03:13:18;;;;;;;8.27;5.97;;;;;;;19.38;nan;19566.56;4992971;28;20473;-59
2023/06/17 03:15:44;;;;;;;7.47;5.30;;;;;;;19.66;nan;19906.09;4993088;28;20200;-59
2023/06/17 03:18:09;;;;;;;9.52;6.00;;;;;;;19.56;nan;19901.66;4991721;28;20215;-59
2023/06/17 03:20:38;;;;;;;8.38;5.82;;;;;;;19.62;nan;18266.53;4992590;28;20184;-58
2023/06/17 03:23:04;;;;;;;7.90;5.65;;;;;;;19.40;nan;17602.59;4992856;28;20640;-58
2023/06/17 03:25:30;;;;;;;9.35;6.38;;;;;;;19.66;nan;19250.75;4992460;28;20172;-58
2023/06/17 03:27:55;;;;;;;10.23;6.20;;;;;;;19.58;nan;19902.53;4992562;28;20244;-59
2023/06/17 03:30:23;;;;;;;9.88;6.40;;;;;;;19.53;nan;19572.72;4992752;28;20176;-58
2023/06/17 03:32:49;;;;;;;11.43;6.57;;;;;;;19.82;nan;20568.84;4992354;28;20269;-59
2023/06/17 03:35:14;;;;;;;11.55;6.53;;;;;;;19.74;nan;18599.16;4992498;28;20255;-58
2023/06/17 03:37:40;;;;;;;10.52;6.40;;;;;;;19.76;nan;19255.31;4992979;28;20177;-58
2023/06/17 03:40:06;;;;;;;11.65;6.32;;;;;;;19.60;nan;17610.75;4991703;28;20172;-58
2023/06/17 03:42:32;;;;;;;10.95;6.05;;;;;;;19.59;nan;18592.59;4992549;28;20236;-59
2023/06/17 03:44:57;;;;;;;8.75;6.07;;;;;;;19.85;nan;16310.84;4991264;28;20204;-58
2023/06/17 03:47:23;;;;;;;12.90;6.50;;;;;;;19.66;nan;16958.09;4991952;28;20169;-58
2023/06/17 03:49:49;;;;;;;9.93;6.70;;;;;;;20.02;nan;24187.47;4992195;28;20184;-58
2023/06/17 03:52:14;;;;;;;9.63;6.72;;;;;;;19.96;nan;21886.94;4992179;28;20184;-59
2023/06/17 03:54:40;;;;;;;11.07;7.00;;;;;;;19.99;nan;22872.97;4992281;28;20682;-60
2023/06/17 03:57:06;;;;;;;12.00;7.32;;;;;;;19.94;nan;20902.25;4991821;28;20163;-59
2023/06/17 03:59:31;;;;;;;13.30;7.30;;;;;;;19.96;nan;24841.03;4991988;28;20243;-59
2023/06/17 04:01:58;;;;;;;9.68;6.25;;;;;;;19.94;nan;29110.81;4991678;28;20181;-60
2023/06/17 04:04:24;;;;;;;10.00;6.88;;;;;;;20.05;nan;28131.06;4991336;28;20735;-58
2023/06/17 04:06:49;;;;;;;11.77;7.78;;;;;;;20.15;nan;25836.50;4991891;28;20212;-57
2023/06/17 04:09:15;;;;;;;8.70;6.35;;;;;;;19.97;nan;26483.72;4991626;28;20176;-59
2023/06/17 04:11:41;;;;;;;12.23;6.93;;;;;;;20.13;nan;26492.56;4991919;28;20197;-58
2023/06/17 04:14:06;;;;;;;11.13;6.25;;;;;;;20.31;nan;27488.19;4991930;28;20181;-59
2023/06/17 04:16:35;;;;;;;14.68;7.07;;;;;;;19.92;nan;23854.09;4991915;28;20260;-58
2023/06/17 04:19:01;;;;;;;11.50;6.82;;;;;;;19.85;nan;19586.97;4992036;28;20239;-58
2023/06/17 04:21:27;;;;;;;10.52;6.63;;;;;;;19.91;nan;15330.47;4991847;28;20183;-59
2023/06/17 04:23:52;;;;;;;12.32;6.45;;;;;;;19.71;nan;14014.63;4991681;28;20192;-58
2023/06/17 04:26:18;;;;;;;14.45;7.03;;;;;;;19.67;nan;11723.97;5000565;28;20723;-58
2023/06/17 04:28:45;;;;;;;10.95;6.53;;;;;;;20.24;nan;17636.38;4992072;28;20187;-59
2023/06/17 04:31:11;;;;;;;13.85;7.60;;;;;;;19.96;nan;19591.59;4991830;28;20574;-58
2023/06/17 04:33:37;;;;;;;10.95;7.10;;;;;;;20.41;nan;28809.53;4992339;28;20184;-58
2023/06/17 04:36:08;;;;;;;11.98;7.82;;;;;;;19.91;nan;21556.78;4992172;28;20201;-58
2023/06/17 04:38:36;;;;;;;9.90;6.28;;;;;;;20.08;nan;22221.03;4992110;28;20227;-59
2023/06/17 04:41:04;;;;;;;9.98;6.22;;;;;;;20.06;nan;22876.44;4974350;28;20169;-58
2023/06/17 04:43:30;;;;;;;10.98;7.20;;;;;;;20.16;nan;17633.31;4991701;28;20196;-59
2023/06/17 04:45:56;;;;;;;11.13;7.05;;;;;;;19.98;nan;16970.75;4991728;28;20654;-58
2023/06/17 04:48:22;;;;;;;10.23;7.00;;;;;;;20.27;nan;14688.69;4991488;28;20691;-58
2023/06/17 04:50:48;;;;;;;13.90;7.03;;;;;;;20.02;nan;15662.00;4991884;28;20201;-59
2023/06/17 04:53:13;;;;;;;11.52;8.43;;;;;;;20.03;nan;18283.22;4991248;28;20187;-59
2023/06/17 04:55:39;;;;;;;13.05;8.50;;;;;;;20.24;nan;21572.34;4991995;28;20543;-58
2023/06/17 04:58:05;;;;;;;12.65;8.00;;;;;;;20.34;nan;21248.41;4994063;28;20169;-59
2023/06/17 05:00:31;;;;;;;14.88;8.32;;;;;;;20.31;nan;17967.06;5004049;28;20266;-58
2023/06/17 05:02:57;;;;;;;13.45;8.88;;;;;;;20.32;nan;19935.00;4995920;28;20613;-58
2023/06/17 05:05:22;;;;;;;14.70;9.15;;;;;;;20.10;nan;13700.50;4995844;28;20207;-59
2023/06/17 05:07:48;;;;;;;16.88;9.88;;;;;;;20.09;nan;7487.13;4995750;28;20188;-59
2023/06/17 05:10:14;;;;;;;18.90;10.05;;;;;;;19.92;nan;3239.84;4995521;28;20180;-58
2023/06/17 05:12:41;;;;;;;16.08;9.20;;;;;;;20.00;nan;-19.50;4995662;28;20586;-58
2023/06/17 05:15:07;;;;;;;17.58;9.38;;;;;;;19.80;nan;-21.81;4995953;28;20181;-58
2023/06/17 05:17:33;;;;;;;16.85;9.85;;;;;;;19.87;nan;-2626.75;4995851;28;20253;-59
2023/06/17 05:19:58;;;;;;;17.90;9.85;;;;;;;19.61;nan;-6206.59;4995552;28;20247;-60
2023/06/17 05:22:23;;;;;;;15.85;9.07;;;;;;;19.60;nan;-9780.56;4995623;28;20243;-60
2023/06/17 05:24:49;;;;;;;14.40;8.27;;;;;;;19.64;nan;-11079.47;4995589;28;20698;-58
2023/06/17 05:27:14;;;;;;;15.05;9.20;;;;;;;19.23;nan;-13347.00;4995109;28;20215;-58
2023/06/17 05:29:40;;;;;;;13.35;8.63;;;;;;;19.80;nan;-15298.81;4994614;28;20592;-61
2023/06/17 05:32:06;;;;;;;14.73;8.82;;;;;;;19.76;nan;-15622.53;4995317;28;20543;-60
2023/06/17 05:34:31;;;;;;;16.85;9.10;;;;;;;19.81;nan;-16595.84;4994670;28;20264;-60
2023/06/17 05:36:57;;;;;;;15.73;8.90;;;;;;;19.70;nan;-15621.78;4994819;28;20545;-59
2023/06/17 05:39:23;;;;;;;13.68;8.55;;;;;;;19.76;nan;-16919.19;4977632;28;20172;-60
2023/06/17 05:41:48;;;;;;;14.95;9.15;;;;;;;19.66;nan;-17241.66;4994533;28;20228;-59
2023/06/17 05:44:13;;;;;;;14.60;8.52;;;;;;;19.53;nan;-19182.72;4994598;28;20592;-59
2023/06/17 05:46:39;;;;;;;14.10;9.25;;;;;;;19.37;nan;-19179.72;4994771;28;20565;-58
2023/06/17 05:49:04;;;;;;;12.40;8.48;;;;;;;19.24;nan;-19824.31;4994386;28;20172;-59
2023/06/17 05:51:30;;;;;;;12.45;8.70;;;;;;;19.40;nan;-19503.97;4994682;28;20184;-59
2023/06/17 05:53:55;;;;;;;15.98;8.95;;;;;;;19.58;nan;-20478.56;4994545;28;20180;-60
2023/06/17 05:56:21;;;;;;;18.00;9.90;;;;;;;19.41;nan;-21769.00;4994370;28;20176;-59
2023/06/17 05:58:46;;;;;;;16.73;9.48;;;;;;;19.53;nan;-22095.19;4993950;28;20463;-59
2023/06/17 06:01:12;;;;;;;15.18;9.73;;;;;;;19.78;nan;-22424.69;5003085;28;20199;-59
2023/06/17 06:03:44;;;;;;;16.80;10.00;;;;;;;19.62;nan;-22744.19;4994316;28;20192;-59
2023/06/17 06:06:09;;;;;;;15.38;10.27;;;;;;;19.66;nan;-23715.44;5002487;28;20230;-57
2023/06/17 06:08:35;;;;;;;18.45;9.48;;;;;;;19.37;nan;-23384.59;4976047;28;20280;-59
2023/06/17 06:11:01;;;;;;;16.10;8.52;;;;;;;19.61;nan;-23067.38;4994156;28;20176;-58
2023/06/17 06:13:28;;;;;;;15.43;9.60;;;;;;;19.58;nan;-22096.41;5001848;28;20187;-59
2023/06/17 06:15:54;;;;;;;15.73;9.18;;;;;;;19.36;nan;-23061.19;4993608;28;20180;-59
2023/06/17 06:18:19;;;;;;;16.52;9.57;;;;;;;19.39;nan;-24031.69;4999711;28;20185;-59
2023/06/17 06:20:45;;;;;;;15.77;9.65;;;;;;;19.55;nan;-23712.63;5002639;28;20315;-58
2023/06/17 06:23:10;;;;;;;17.50;10.65;;;;;;;20.11;nan;-23403.88;4993620;28;20581;-59
2023/06/17 06:25:36;;;;;;;14.90;10.07;;;;;;;;;;4992863;28;20187;-59
2023/06/17 06:28:01;;;;;;;19.58;10.82;;;;;;;20.24;nan;-19844.59;4993942;28;20181;-59
2023/06/17 06:30:27;;;;;;;18.92;10.45;;;;;;;20.80;nan;-16935.38;4994023;28;20223;-58
2023/06/17 06:32:52;;;;;;;14.23;9.55;;;;;;;20.96;nan;-13363.94;4993789;28;20169;-58
2023/06/17 06:35:17;;;;;;;15.40;9.55;;;;;;;20.77;nan;-15960.81;4993717;28;20243;-60
2023/06/17 06:37:43;;;;;;;17.25;10.43;;;;;;;20.90;nan;-11412.44;4993732;28;20175;-60
2023/06/17 06:40:09;;;;;;;15.50;10.07;;;;;;;21.08;nan;-10437.47;4993692;28;20264;-58
2023/06/17 06:42:35;;;;;;;15.40;9.75;;;;;;;21.31;nan;-10764.16;4993497;28;20224;-59
2023/06/17 06:45:01;;;;;;;15.45;9.80;;;;;;;21.30;nan;-12065.94;4993630;28;20200;-59
2023/06/17 06:47:28;;;;;;;18.10;10.30;;;;;;;19.05;nan;-10102.72;4993659;28;20675;-58
2023/06/17 06:49:54;;;;;;;16.23;9.80;;;;;;;21.81;nan;-7181.31;4994004;28;20184;-59
2023/06/17 06:52:20;;;;;;;15.10;10.20;;;;;;;21.83;nan;-7181.31;4999491;28;20192;-60
2023/06/17 06:54:46;;;;;;;16.55;9.80;;;;;;;21.89;nan;-7507.47;4993273;28;20239;-59
2023/06/17 06:57:11;;;;;;;16.83;9.88;;;;;;;21.83;nan;-6202.72;4992902;28;20236;-59
2023/06/17 06:59:36;;;;;;;15.52;10.02;;;;;;;22.07;nan;-6528.63;4993132;28;20553;-57
2023/06/17 07:02:02;;;;;;;16.90;10.13;;;;;;;21.87;nan;-7507.47;4993312;28;20187;-60
2023/06/17 07:04:28;;;;;;;17.42;10.15;;;;;;;21.89;nan;-6202.59;4992989;28;20572;-59
2023/06/17 07:06:53;;;;;;;16.13;9.80;;;;;;;22.08;nan;-7833.75;4993287;28;20252;-59
2023/06/17 07:09:19;;;;;;;16.90;10.48;;;;;;;21.93;nan;-1957.78;4993121;28;20216;-58
2023/06/17 07:11:44;;;;;;;17.10;9.57;;;;;;;21.93;nan;-1957.84;4993120;28;20161;-59
2023/06/17 07:14:11;;;;;;;14.20;9.77;;;;;;;21.77;nan;-1959.19;4992990;28;20173;-59
2023/06/17 07:16:37;;;;;;;16.38;10.07;;;;;;;21.97;nan;-1957.44;4992754;28;20172;-60
2023/06/17 07:19:02;;;;;;;14.50;9.25;;;;;;;21.98;nan;-5549.69;4992608;28;20255;-58
2023/06/17 07:21:27;;;;;;;16.63;9.82;;;;;;;21.97;nan;-8159.81;4992440;28;20177;-58
2023/06/17 07:23:53;;;;;;;16.90;9.95;;;;;;;21.78;nan;-8159.56;4992604;28;20204;-59
2023/06/17 07:26:18;;;;;;;17.23;10.10;;;;;;;21.75;nan;-7833.50;4997524;28;20265;-59
2023/06/17 07:28:44;;;;;;;17.83;10.70;;;;;;;21.70;nan;-7507.41;4995836;28;20185;-59
2023/06/17 07:31:09;;;;;;;18.55;10.77;;;;;;;22.00;nan;-7833.69;4992635;28;20181;-59
2023/06/17 07:33:35;;;;;;;17.08;10.45;;;;;;;22.10;nan;-4569.88;4992676;28;20192;-58
2023/06/17 07:36:00;;;;;;;17.65;10.70;;;;;;;22.31;nan;-2935.19;4992497;28;20581;-60
2023/06/17 07:38:26;;;;;;;16.20;10.70;;;;;;;22.35;nan;-5222.03;4992561;28;20176;-59
2023/06/17 07:40:51;;;;;;;19.55;10.35;;;;;;;22.55;nan;2302.03;4992503;28;20184;-58
2023/06/17 07:43:17;;;;;;;15.57;9.98;;;;;;;22.26;nan;1315.66;4992307;28;20185;-59
2023/06/17 07:45:42;;;;;;;20.73;11.60;;;;;;;22.39;nan;5902.81;4992665;28;20592;-59
2023/06/17 07:48:07;;;;;;;18.83;11.00;;;;;;;22.35;nan;3608.63;4992455;28;20168;-58
2023/06/17 07:50:33;;;;;;;17.40;9.93;;;;;;;22.40;nan;5903.03;4992105;28;20556;-58
2023/06/17 07:52:58;;;;;;;19.08;10.85;;;;;;;22.51;nan;12139.66;4991809;28;20235;-58
2023/06/17 07:55:24;;;;;;;19.35;10.30;;;;;;;22.62;nan;15758.56;4992375;28;20277;-58
2023/06/17 07:57:49;;;;;;;16.77;10.27;;;;;;;22.36;nan;17393.16;4990369;28;20239;-59
2023/06/17 08:00:15;;;;;;;17.38;10.00;;;;;;;22.24;nan;14758.63;4991683;28;20203;-58
2023/06/17 08:02:41;;;;;;;16.33;10.27;;;;;;;22.40;nan;12136.31;4974646;28;20275;-59
2023/06/17 08:05:08;;;;;;;18.00;10.15;;;;;;;22.25;nan;7210.88;4991819;28;20201;-59
2023/06/17 08:07:33;;;;;;;20.73;10.95;;;;;;;22.35;nan;7869.06;4991429;28;20677;-59
2023/06/17 08:09:59;;;;;;;16.88;9.80;;;;;;;22.09;nan;12126.66;4991611;28;20248;-59
2023/06/17 08:12:24;;;;;;;14.90;9.23;;;;;;;22.11;nan;12127.13;4991683;28;20692;-59
2023/06/17 08:14:50;;;;;;;13.80;9.10;;;;;;;22.22;nan;13444.16;4991724;28;20232;-58
2023/06/17 08:17:16;;;;;;;15.20;9.32;;;;;;;22.15;nan;13770.03;4991505;28;20165;-59
2023/06/17 08:19:42;;;;;;;14.00;8.88;;;;;;;22.20;nan;17715.28;4990790;28;20559;-59
2023/06/17 08:22:08;;;;;;;15.95;10.13;;;;;;;22.29;nan;24962.34;4990763;28;20188;-59
2023/06/17 08:24:34;;;;;;;15.93;9.43;;;;;;;22.26;nan;16731.31;4991117;28;20196;-59
2023/06/17 08:26:59;;;;;;;14.32;8.13;;;;;;;22.08;nan;13767.63;4991829;28;20175;-59
2023/06/17 08:29:25;;;;;;;13.73;8.55;;;;;;;22.27;nan;23313.53;4991623;28;20230;-59
2023/06/17 08:31:52;;;;;;;13.93;8.80;;;;;;;22.20;nan;18373.00;4994434;28;20246;-57
2023/06/17 08:34:19;;;;;;;13.80;8.48;;;;;;;22.22;nan;11474.13;4998159;28;20214;-59
2023/06/17 08:36:46;;;;;;;18.48;9.20;;;;;;;22.35;nan;10821.59;4998207;28;20536;-59
2023/06/17 08:39:12;;;;;;;14.60;8.00;;;;;;;22.48;nan;9512.69;4998239;28;20323;-59
2023/06/17 08:41:39;;;;;;;14.10;7.70;;;;;;;22.68;nan;21027.41;4997826;28;20239;-57
2023/06/17 08:44:06;;;;;;;12.10;8.00;;;;;;;22.76;nan;16750.78;4997739;28;20215;-58
2023/06/17 08:46:33;;;;;;;11.65;7.45;;;;;;;22.84;nan;28291.38;4998221;28;20169;-58
2023/06/17 08:48:59;;;;;;;12.60;7.13;;;;;;;23.13;nan;38653.09;4997600;28;20165;-59
2023/06/17 08:51:25;;;;;;;12.80;7.72;;;;;;;23.13;nan;33929.28;4997891;28;20207;-59
2023/06/17 08:53:52;;;;;;;12.45;7.80;;;;;;;23.10;nan;41712.28;4998411;28;20161;-59
2023/06/17 08:56:18;;;;;;;11.75;6.72;;;;;;;23.25;nan;46172.31;4998275;28;20639;-61
2023/06/17 08:58:47;;;;;;;11.25;6.65;;;;;;;20.23;nan;47065.84;4997655;28;20168;-59
2023/06/17 09:01:14;;;;;;;11.05;6.50;;;;;;;22.88;nan;42441.13;4997877;28;20181;-59
2023/06/17 09:03:43;;;;;;;10.30;5.80;;;;;;;23.05;nan;35578.34;5003316;28;20195;-58
2023/06/17 09:06:23;;;;;;;11.70;6.82;;;;;;;23.40;nan;30307.34;4998863;28;20200;-58
2023/06/17 09:08:50;;;;;;;11.55;6.97;;;;;;;23.36;nan;43179.97;4997984;28;20239;-58
2023/06/17 09:11:23;;;;;;;13.60;7.22;;;;;;;23.27;nan;42327.31;5005469;28;20191;-58
2023/06/17 09:13:52;;;;;;;13.68;7.47;;;;;;;23.23;nan;48338.25;4997241;28;20247;-59
2023/06/17 09:16:25;;;;;;;12.25;7.30;;;;;;;23.03;nan;45299.59;4997391;28;20249;-59
2023/06/17 09:18:54;;;;;;;12.05;7.72;;;;;;;23.26;nan;38251.53;4997813;28;20191;-58
2023/06/17 09:21:20;;;;;;;13.00;7.95;;;;;;;23.33;nan;35598.00;4997933;28;20179;-59
2023/06/17 09:23:56;;;;;;;15.13;8.63;;;;;;;23.67;nan;38621.19;4997906;28;20188;-58
2023/06/17 09:26:28;;;;;;;14.38;8.23;;;;;;;23.45;nan;27004.69;4998097;28;20326;-59
2023/06/17 09:29:00;;;;;;;15.68;8.77;;;;;;;23.44;nan;27995.50;4997458;28;20256;-59
2023/06/17 09:31:25;;;;;;;14.70;9.15;;;;;;;23.55;nan;31309.09;4998071;28;20195;-59
2023/06/17 09:33:50;;;;;;;16.42;9.80;;;;;;;23.29;nan;30962.28;4997809;28;20212;-58
2023/06/17 09:36:17;;;;;;;17.90;10.20;;;;;;;23.52;nan;36809.56;4998001;28;20184;-60
2023/06/17 09:38:43;;;;;;;15.40;9.75;;;;;;;23.54;nan;29984.91;4997617;28;20175;-61
2023/06/17 09:41:20;;;;;;;15.60;9.70;;;;;;;23.89;nan;31330.28;4997392;28;20181;-59
2023/06/17 09:43:52;;;;;;;18.83;10.63;;;;;;;23.77;nan;30660.75;4994747;28;20791;-60
2023/06/17 09:46:29;;;;;;;18.80;10.15;;;;;;;23.97;nan;45364.63;4993936;28;20184;-57
2023/06/17 09:48:57;;;;;;;16.15;9.27;;;;;;;23.82;nan;45564.66;4994721;28;20169;-58
2023/06/17 09:51:23;;;;;;;17.40;9.65;;;;;;;24.27;nan;47165.19;4994705;28;20169;-59
2023/06/17 09:53:55;;;;;;;16.92;9.73;;;;;;;24.01;nan;45087.09;4994247;28;20581;-60
2023/06/17 09:56:21;;;;;;;15.75;9.38;;;;;;;24.34;nan;50858.97;4994780;28;20260;-58
2023/06/17 09:58:47;;;;;;;18.65;9.85;;;;;;;24.32;nan;51221.56;4994704;28;20251;-59
2023/06/17 10:01:13;;;;;;;16.55;9.98;;;;;;;24.87;nan;51956.69;4994227;28;20648;-59
2023/06/17 10:03:42;;;;;;;18.95;9.80;;;;;;;24.83;nan;53490.38;4994394;28;20745;-59
2023/06/17 10:06:09;;;;;;;18.90;10.85;;;;;;;25.28;nan;55654.75;4994565;28;20251;-58
2023/06/17 10:08:36;;;;;;;15.57;9.02;;;;;;;25.30;nan;56324.78;4994316;28;20183;-58
2023/06/17 10:11:02;;;;;;;14.35;8.65;;;;;;;25.53;nan;54938.25;4994311;28;20168;-58
2023/06/17 10:13:31;;;;;;;14.63;9.25;;;;;;;25.62;nan;55782.88;4994429;28;20187;-58
2023/06/17 10:16:00;;;;;;;12.75;7.90;;;;;;;25.57;nan;58547.91;4993989;28;20690;-58
2023/06/17 10:18:28;;;;;;;14.07;7.80;;;;;;;25.47;nan;58723.78;4994455;28;20231;-58
2023/06/17 10:20:56;;;;;;;11.93;7.20;;;;;;;25.74;nan;58072.00;4993794;28;20185;-59
2023/06/17 10:23:23;;;;;;;9.23;6.65;;;;;;;25.90;nan;58876.50;4993616;28;20176;-58
2023/06/17 10:25:49;;;;;;;11.18;6.57;;;;;;;25.42;nan;58566.78;5002202;28;20604;-59
2023/06/17 10:28:15;;;;;;;11.30;5.57;;;;;;;25.18;nan;59290.28;4993899;28;20272;-60
2023/06/17 10:30:44;;;;;;;9.30;5.85;;;;;;;25.16;nan;58898.75;4994086;28;20173;-59
2023/06/17 10:33:09;;;;;;;10.00;6.60;;;;;;;25.18;nan;58388.78;4993408;28;20571;-59
2023/06/17 10:35:39;;;;;;;9.25;6.25;;;;;;;25.21;nan;58687.81;4993129;28;20168;-59
2023/06/17 10:38:07;;;;;;;9.57;6.13;;;;;;;24.80;nan;57948.91;4993825;28;20259;-58
2023/06/17 10:40:36;;;;;;;10.35;6.38;;;;;;;24.48;nan;57631.34;4993379;28;20619;-59
2023/06/17 10:43:01;;;;;;;9.63;5.93;;;;;;;24.62;nan;58833.41;4993650;28;20248;-59
2023/06/17 10:45:50;;;;;;;10.18;5.50;;;;;;;24.54;nan;58248.44;4993085;28;20660;-58
2023/06/17 10:48:29;;;;;;;11.82;5.97;;;;;;;24.43;nan;55291.75;4987250;28;20231;-60
2023/06/17 10:50:56;;;;;;;7.93;5.32;;;;;;;24.25;nan;56096.50;4993655;28;20183;-59
2023/06/17 10:53:25;;;;;;;10.43;6.20;;;;;;;24.16;nan;55133.75;4993694;28;20263;-58
2023/06/17 10:55:51;;;;;;;8.88;5.57;;;;;;;24.05;nan;54224.19;4992925;28;20177;-58
2023/06/17 10:58:16;;;;;;;8.52;5.70;;;;;;;24.05;nan;52991.84;4993578;28;20173;-58
2023/06/17 11:00:42;;;;;;;9.10;6.00;;;;;;;23.94;nan;49489.50;4993870;28;20173;-59
2023/06/17 11:03:09;;;;;;;11.98;6.10;;;;;;;24.07;nan;50318.00;4993451;28;20534;-58
2023/06/17 11:05:36;;;;;;;9.57;5.38;;;;;;;24.36;nan;51311.31;4993098;28;20193;-58
2023/06/17 11:08:05;;;;;;;9.23;5.85;;;;;;;24.22;nan;51300.47;4993592;28;20222;-60
2023/06/17 11:10:31;;;;;;;9.45;5.68;;;;;;;24.00;nan;51347.47;4993189;28;20242;-58
2023/06/17 11:12:57;;;;;;;9.23;5.38;;;;;;;24.05;nan;51498.03;4993231;28;20247;-59
2023/06/17 11:15:22;;;;;;;8.73;5.85;;;;;;;23.90;nan;45649.09;4993197;28;20259;-57
2023/06/17 11:18:03;;;;;;;8.73;5.20;;;;;;;23.89;nan;47800.13;4993263;28;20172;-58
2023/06/17 11:20:33;;;;;;;7.72;5.35;;;;;;;23.86;nan;49692.69;4993253;28;20592;-58
2023/06/17 11:22:59;;;;;;;8.95;5.32;;;;;;;24.22;nan;52700.84;4993207;28;20243;-58
2023/06/17 11:25:24;;;;;;;7.20;5.20;;;;;;;24.14;nan;51704.53;4992869;28;20687;-60
2023/06/17 11:27:50;;;;;;;7.75;4.72;;;;;;;24.31;nan;52983.69;4992864;28;20161;-59
2023/06/17 11:30:16;;;;;;;7.03;4.88;;;;;;;24.08;nan;55647.25;4993013;28;20173;-59
2023/06/17 11:32:43;;;;;;;7.50;4.43;;;;;;;24.24;nan;53093.97;4992771;28;20177;-59
2023/06/17 11:35:09;;;;;;;6.15;3.95;;;;;;;24.55;nan;56428.19;4993056;28;20410;-59
2023/06/17 11:37:35;;;;;;;6.38;3.83;;;;;;;24.62;nan;57857.13;4991970;28;20840;-59
2023/06/17 11:40:01;;;;;;;6.93;4.43;;;;;;;24.75;nan;58831.84;5001205;28;20215;-59
2023/06/17 11:42:27;;;;;;;5.05;3.60;;;;;;;24.70;nan;58969.47;4992647;28;20236;-58